Weather History for Sidney-Richland, MT

Change the Weather History Date:

Friday, November 1, 2013

  Actual Average Record
Temperature  
Mean Temperature 43 °F -  
Max Temperature 53 °F 48 °F 72 °F (1987)
Min Temperature 33 °F 27 °F -9 °F (1911)
Degree Days  
Heating Degree Days 22    
Moisture  
Dew Point 30 °F    
Average Humidity 61    
Maximum Humidity 81    
Minimum Humidity 38    
Precipitation  
Precipitation 0.01 in - - ()
Sea Level Pressure  
Sea Level Pressure 29.91 in    
Wind  
Wind Speed 16 mph (WNW)    
Max Wind Speed 29 mph    
Max Gust Speed 34 mph    
Visibility 10 miles    
Events      
Averages and records for this station are not official NWS values.
T = Trace of Precipitation, MM = Missing Value Source: NWS Daily Summary

Daily Weather History Graph

Daily Weather History Graph

Search for Another Location

Airport:

Trip Planner

Search our weather history database for the weather conditions in past years. The results will help you decide how hot, cold, wet, or windy it might be!

Date:

Astronomy

Nov. 01, 2013 Rise Set
Actual Time 7:41 AM MDT 5:38 PM MDT
Civil Twilight 7:09 AM MDT 6:10 PM MDT
Nautical Twilight 6:32 AM MDT 6:47 PM MDT
Astronomical Twilight 5:56 AM MDT 7:23 PM MDT
Moon 5:28 AM MDT (11/1) 4:38 PM MDT (11/1)
Length of Visible Light 11h 01m
Length of Day
9h 56m
Waning Crescent, 4% of the Moon is Illuminated
Nov 1
Waning Crescent
Nov 3
New
Nov 9
First Quarter
Nov 17
Full
Nov 25
Last Quarter

Hourly Weather History & Observations

Time (MDT) Temp. Windchill Dew Point Humidity Pressure Visibility Wind Dir Wind Speed Gust Speed Precip Events Conditions
12:15 AM 42.8 °F 35.4 °F 33.8 °F 70% 29.70 in 10.0 mi West 15.0 mph 20.7 mph N/A   Partly Cloudy
12:35 AM 42.8 °F 36.6 °F 33.8 °F 70% 29.71 in 10.0 mi WNW 11.5 mph 18.4 mph N/A   Clear
12:55 AM 42.8 °F 36.6 °F 33.8 °F 70% 29.71 in 10.0 mi WNW 11.5 mph 16.1 mph N/A   Clear
1:15 AM 42.8 °F 37.0 °F 33.8 °F 70% 29.72 in 10.0 mi West 10.4 mph 16.1 mph N/A   Mostly Cloudy
1:35 AM 42.8 °F 36.2 °F 33.8 °F 70% 29.72 in 10.0 mi West 12.7 mph - N/A   Scattered Clouds
1:55 AM 42.8 °F 35.4 °F 33.8 °F 70% 29.72 in 10.0 mi West 15.0 mph 19.6 mph N/A   Clear
2:15 AM 42.8 °F 35.1 °F 32.0 °F 66% 29.72 in 10.0 mi WNW 16.1 mph - N/A   Clear
2:35 AM 42.8 °F 34.3 °F 32.0 °F 66% 29.72 in 10.0 mi West 19.6 mph - N/A   Partly Cloudy
2:55 AM 42.8 °F 35.1 °F 30.2 °F 61% 29.73 in 10.0 mi West 16.1 mph 23.0 mph N/A   Partly Cloudy
3:15 AM 42.8 °F 35.4 °F 30.2 °F 61% 29.74 in 10.0 mi West 15.0 mph 19.6 mph N/A   Mostly Cloudy
3:55 AM 42.8 °F 34.3 °F 30.2 °F 61% 29.74 in 10.0 mi WNW 19.6 mph 28.8 mph N/A   Overcast
4:15 AM 42.8 °F 34.8 °F 30.2 °F 61% 29.75 in 10.0 mi WNW 17.3 mph 28.8 mph N/A   Overcast
4:36 AM 42.8 °F 33.8 °F 30.2 °F 61% 29.76 in 10.0 mi WNW 21.9 mph 27.6 mph N/A   Overcast
4:55 AM 42.8 °F 34.8 °F 32.0 °F 66% 29.77 in 10.0 mi West 17.3 mph 26.5 mph N/A   Overcast
5:15 AM 42.8 °F 34.3 °F 30.2 °F 61% 29.78 in 10.0 mi WNW 19.6 mph 26.5 mph N/A   Overcast
5:35 AM 42.8 °F 34.0 °F 32.0 °F 66% 29.79 in 8.0 mi WNW 20.7 mph 25.3 mph N/A   Overcast
5:55 AM 41.0 °F 31.4 °F 32.0 °F 70% 29.80 in 10.0 mi WNW 21.9 mph 31.1 mph N/A   Overcast
6:15 AM 39.2 °F 31.6 °F 33.8 °F 81% 29.80 in 10.0 mi WNW 12.7 mph 18.4 mph 0.01 in   Overcast
6:35 AM 41.0 °F 32.2 °F 33.8 °F 76% 29.82 in 10.0 mi NW 18.4 mph 26.5 mph 0.01 in   Overcast
6:55 AM 41.0 °F 31.1 °F 33.8 °F 76% 29.83 in 10.0 mi NW 23.0 mph 28.8 mph 0.01 in   Overcast
7:15 AM 41.0 °F 31.4 °F 33.8 °F 76% 29.83 in 10.0 mi NW 21.9 mph 28.8 mph N/A   Overcast
7:35 AM 41.0 °F 30.0 °F 33.8 °F 76% 29.84 in 10.0 mi NW 28.8 mph 34.5 mph N/A   Overcast
7:55 AM 41.0 °F 31.1 °F 33.8 °F 76% 29.86 in 10.0 mi NW 23.0 mph 33.4 mph N/A   Overcast
8:15 AM 39.2 °F 29.8 °F 33.8 °F 81% 29.88 in 10.0 mi NW 18.4 mph 28.8 mph N/A   Overcast
8:35 AM 41.0 °F 31.1 °F 33.8 °F 76% 29.90 in 10.0 mi NW 23.0 mph 29.9 mph N/A   Overcast
8:55 AM 41.0 °F 31.9 °F 33.8 °F 76% 29.91 in 10.0 mi NW 19.6 mph 26.5 mph N/A   Overcast
9:15 AM 39.2 °F 30.2 °F 33.8 °F 81% 29.93 in 10.0 mi NW 17.3 mph 29.9 mph N/A   Mostly Cloudy
9:35 AM 42.8 °F 34.3 °F 33.8 °F 70% 29.94 in 10.0 mi NW 19.6 mph 32.2 mph N/A   Scattered Clouds
9:55 AM 42.8 °F 34.5 °F 32.0 °F 66% 29.95 in 10.0 mi NW 18.4 mph 26.5 mph N/A   Partly Cloudy
10:15 AM 41.0 °F 31.6 °F 30.2 °F 65% 29.96 in 10.0 mi NW 20.7 mph 27.6 mph N/A   Clear
10:35 AM 42.8 °F 34.5 °F 30.2 °F 61% 29.97 in 10.0 mi NW 18.4 mph 24.2 mph N/A   Clear
10:55 AM 44.6 °F 36.9 °F 30.2 °F 57% 29.97 in 10.0 mi NW 18.4 mph 25.3 mph N/A   Clear
11:15 AM 44.6 °F 36.6 °F 28.4 °F 53% 29.98 in 10.0 mi NW 19.6 mph 26.5 mph N/A   Clear
11:35 AM 44.6 °F 37.4 °F 30.2 °F 57% 29.98 in 10.0 mi NW 16.1 mph 26.5 mph N/A   Clear
11:55 AM 46.4 °F 39.2 °F 30.2 °F 53% 29.99 in 10.0 mi NW 18.4 mph 29.9 mph N/A   Partly Cloudy
12:35 PM 48.2 °F - 28.4 °F 46% 30.00 in 10.0 mi NW 21.9 mph 28.8 mph N/A   Clear
12:55 PM 48.2 °F - 28.4 °F 46% 29.99 in 10.0 mi NW 17.3 mph 28.8 mph N/A   Clear
1:15 PM 48.2 °F - 28.4 °F 46% 29.98 in 10.0 mi NW 23.0 mph 28.8 mph N/A   Clear
1:35 PM 51.8 °F - 28.4 °F 41% 29.98 in 10.0 mi NW 23.0 mph 28.8 mph N/A   Clear
2:15 PM 51.8 °F - 28.4 °F 41% 29.99 in 10.0 mi NW 20.7 mph 28.8 mph N/A   Partly Cloudy
2:35 PM 51.8 °F - 28.4 °F 41% 29.99 in 10.0 mi NW 18.4 mph 26.5 mph N/A   Scattered Clouds
2:55 PM 51.8 °F - 28.4 °F 41% 29.99 in 10.0 mi NW 18.4 mph 26.5 mph N/A   Mostly Cloudy
3:15 PM 51.8 °F - 28.4 °F 41% 29.99 in 10.0 mi NW 16.1 mph 21.9 mph N/A   Scattered Clouds
3:35 PM 53.6 °F - 30.2 °F 41% 29.99 in 10.0 mi NW 13.8 mph - N/A   Clear
3:55 PM 53.6 °F - 28.4 °F 38% 29.99 in 10.0 mi NW 17.3 mph 25.3 mph N/A   Clear
4:15 PM 51.8 °F - 28.4 °F 41% 29.99 in 10.0 mi NW 16.1 mph 23.0 mph N/A   Clear
4:35 PM 51.8 °F - 28.4 °F 41% 30.00 in 10.0 mi NW 10.4 mph - N/A   Clear
4:55 PM 51.8 °F - 26.6 °F 38% 30.00 in 10.0 mi NW 12.7 mph 18.4 mph N/A   Clear
6:15 PM 42.8 °F 37.5 °F 24.8 °F 49% 30.01 in 10.0 mi WNW 9.2 mph - N/A   Clear
6:55 PM 39.2 °F 33.0 °F 26.6 °F 61% 30.02 in 10.0 mi WNW 9.2 mph - N/A   Clear
7:35 PM 39.2 °F 32.5 °F 24.8 °F 56% 30.03 in 10.0 mi WNW 10.4 mph - N/A   Clear
7:55 PM 37.4 °F 30.3 °F 24.8 °F 60% 30.03 in 10.0 mi WNW 10.4 mph - N/A   Clear
8:15 PM 39.2 °F 32.5 °F 24.8 °F 56% 30.03 in 10.0 mi WNW 10.4 mph - N/A   Clear
8:35 PM 37.4 °F 30.3 °F 23.0 °F 56% 30.03 in 10.0 mi WNW 10.4 mph - N/A   Clear
8:55 PM 37.4 °F 30.8 °F 24.8 °F 60% 30.03 in 10.0 mi WNW 9.2 mph - N/A   Clear
9:15 PM 33.8 °F 26.4 °F 23.0 °F 65% 30.04 in 10.0 mi WNW 9.2 mph - N/A   Clear
9:35 PM 35.6 °F 28.0 °F 24.8 °F 65% 30.04 in 10.0 mi WNW 10.4 mph - N/A   Clear
9:55 PM 35.6 °F 29.2 °F 24.8 °F 65% 30.04 in 10.0 mi WNW 8.1 mph - N/A   Clear
10:35 PM 35.6 °F 28.0 °F 24.8 °F 65% 30.05 in 10.0 mi West 10.4 mph - N/A   Clear
10:55 PM 35.6 °F 27.5 °F 24.8 °F 65% 30.04 in 10.0 mi WNW 11.5 mph - N/A   Clear
11:15 PM 35.6 °F 27.1 °F 24.8 °F 65% 30.04 in 10.0 mi WNW 12.7 mph - N/A   Clear
11:35 PM 35.6 °F 28.6 °F 24.8 °F 65% 30.05 in 10.0 mi WNW 9.2 mph - N/A   Clear
11:55 PM 35.6 °F 28.0 °F 24.8 °F 65% 30.05 in 10.0 mi WNW 10.4 mph - N/A   Clear